Latest Weather Observations for Kingscote

IDS60801

Issued at 2:35 am CDT Friday 24 October 2014 (issued every 30 minutes, with the page automatically refreshed every 10 minutes)

About weather observations | Map of weather stations | Latest weather observations for SA | Other Formats
Station Details ID: 022841 Name: KINGSCOTE AERO Lat: -35.71 Lon: 137.52 Height: 6.23 m
Data from the previous 72 hours. | See also: Recent months at Kingscote
Date/Time
CDT
Temp
°C
App
Temp
°C
Dew
Point
Rel
Hum
%
Delta-T
°C
Wind Press
QNH
hPa
Press
MSL
hPa
Rain
since 9 am
mm
Dir
 
Spd
km/h
Gust
km/h
Spd
kts
Gust
kts
24/02:30am 12.2 12.5 10.8 91 0.7 N 0 0 0 0 1013.6 1013.6 0.0
24/02:00am 12.2 12.5 10.9 92 0.7 NNW 0 0 0 0 1014.1 1014.1 0.0
24/01:30am 11.9 12.1 10.6 92 0.7 CALM 0 0 0 0 1014.2 1014.2 0.0
24/01:00am 12.2 11.3 10.6 90 0.8 SSW 6 9 3 5 1014.6 1014.6 0.0
24/12:30am 12.9 11.5 11.0 88 1.0 SE 9 15 5 8 1014.7 1014.7 0.0
24/12:00am 13.4 12.5 11.5 88 1.0 SSE 7 9 4 5 1015.4 1015.4 0.0
 
Date/Time
CDT
Temp
°C
App
Temp
°C
Dew
Point
Rel
Hum
%
Delta-T
°C
Wind Press
QNH
hPa
Press
MSL
hPa
Rain
since 9 am
mm
Dir
 
Spd
km/h
Gust
km/h
Spd
kts
Gust
kts
23/11:30pm 13.4 11.8 11.5 88 1.0 S 11 15 6 8 1015.5 1015.5 0.0
23/11:00pm 13.4 12.1 11.3 87 1.1 S 9 13 5 7 1016.0 1016.0 0.0
23/10:30pm 13.4 12.7 11.5 88 1.0 SSW 6 7 3 4 1016.4 1016.4 0.0
23/10:00pm 13.2 11.2 11.6 90 0.9 SSE 13 17 7 9 1016.2 1016.2 0.0
23/09:30pm 12.3 12.6 10.9 91 0.7 CALM 0 0 0 0 1016.0 1016.0 0.0
23/09:00pm 12.0 10.8 10.4 90 0.8 S 7 9 4 5 1016.0 1016.0 0.0
23/08:55pm 12.0 10.8 10.4 90 0.8 S 7 9 4 5 1015.9 1015.9 0.0
23/08:30pm 12.4 10.9 10.5 88 1.0 SSE 9 11 5 6 1016.0 1016.0 0.0
23/08:00pm 13.3 11.5 11.0 86 1.2 SSE 11 13 6 7 1016.1 1016.1 0.0
23/07:30pm 14.2 12.1 11.2 82 1.6 SSE 13 17 7 9 1015.9 1015.9 0.0
23/07:00pm 15.7 13.4 11.7 77 2.2 SE 15 20 8 11 1015.9 1015.9 0.0
23/06:30pm 16.3 13.3 11.9 75 2.4 SSE 19 24 10 13 1015.6 1015.6 0.0
23/06:00pm 16.7 13.9 11.4 71 2.9 SSE 17 24 9 13 1015.8 1015.8 0.0
23/05:30pm 17.5 14.6 12.2 71 2.9 SSE 19 26 10 14 1015.6 1015.6 0.0
23/05:00pm 17.8 14.2 11.8 68 3.3 SSE 22 28 12 15 1015.5 1015.5 0.0
23/04:30pm 18.4 15.3 11.7 65 3.7 SSE 19 24 10 13 1015.6 1015.6 0.0
23/04:00pm 18.5 15.3 12.0 66 3.6 SSE 20 28 11 15 1015.7 1015.7 0.0
23/03:30pm 19.3 15.8 12.1 63 4.0 SSE 22 30 12 16 1016.0 1016.0 0.0
23/03:00pm 19.0 15.4 11.8 63 4.0 SSE 22 28 12 15 1016.4 1016.4 0.0
23/02:30pm 18.8 15.7 12.1 65 3.7 SE 20 24 11 13 1016.5 1016.5 0.0
23/02:00pm 19.8 16.5 12.8 64 3.9 SSE 22 32 12 17 1016.9 1016.9 0.0
23/01:30pm 18.2 15.2 12.4 69 3.2 SE 20 28 11 15 1017.1 1017.1 0.0
23/01:00pm 17.5 14.0 12.2 71 2.9 SE 22 28 12 15 1017.4 1017.4 0.0
23/12:30pm 16.8 12.7 11.5 71 2.9 SSE 24 32 13 17 1017.9 1017.9 0.0
23/12:00pm 17.5 13.7 12.4 72 2.8 SSE 24 32 13 17 1018.2 1018.2 0.0
23/11:30am 17.0 13.0 11.9 72 2.8 SE 24 32 13 17 1018.4 1018.4 0.0
23/11:00am 17.2 13.4 12.5 74 2.6 SE 24 33 13 18 1018.6 1018.6 0.0
23/10:30am 16.7 12.9 12.3 75 2.4 SE 24 32 13 17 1018.9 1018.9 0.0
23/10:27am 16.0 11.9 11.6 75 2.4 SE 24 32 13 17 1018.9 1018.9 0.0
23/10:00am 15.6 11.5 11.4 76 2.3 SE 24 37 13 20 1019.1 1019.1 0.0
23/09:30am 15.2 10.6 11.2 77 2.1 SE 26 35 14 19 1019.5 1019.5 0.0
23/09:00am 15.2 11.1 11.6 79 1.9 SE 24 33 13 18 1019.6 1019.6 0.0
23/08:30am 14.6 11.5 11.7 83 1.6 SE 19 28 10 15 1019.6 1019.6 0.0
23/08:00am 14.5 10.8 11.5 82 1.6 SE 22 32 12 17 1019.5 1019.5 0.0
23/07:55am 14.4 10.2 11.2 81 1.7 SE 24 32 13 17 1019.5 1019.5 0.0
23/07:49am 14.3 10.2 11.3 82 1.6 SE 24 32 13 17 1019.5 1019.5 0.0
23/07:30am 14.2 10.8 11.4 83 1.5 SE 20 30 11 16 1019.6 1019.6 0.0
23/07:00am 14.1 10.8 11.6 85 1.3 SE 20 28 11 15 1019.5 1019.5 0.0
23/06:30am 13.9 10.9 11.8 87 1.1 SE 19 26 10 14 1019.3 1019.3 0.0
23/06:00am 14.4 10.3 11.6 83 1.5 SE 24 33 13 18 1019.2 1019.2 0.0
23/05:30am 14.1 10.3 11.1 82 1.6 SSE 22 30 12 16 1019.4 1019.4 0.0
23/05:00am 14.3 10.6 11.5 83 1.5 SSE 22 33 12 18 1019.4 1019.4 0.0
23/04:30am 14.4 11.2 11.9 85 1.3 SSE 20 30 11 16 1019.4 1019.4 0.0
23/04:00am 14.5 11.2 11.5 82 1.6 SE 20 30 11 16 1019.0 1019.0 0.0
23/03:30am 14.5 12.2 11.6 83 1.5 SSE 15 19 8 10 1019.5 1019.5 0.0
23/03:00am 14.6 11.5 11.7 83 1.6 SSE 19 28 10 15 1019.9 1019.9 0.0
23/02:30am 14.4 11.3 11.7 84 1.4 SSE 19 24 10 13 1019.9 1019.9 0.0
23/02:00am 14.4 10.4 11.9 85 1.3 S 24 30 13 16 1020.3 1020.3 0.0
23/01:30am 14.3 11.1 12.0 86 1.2 SSE 20 30 11 16 1020.7 1020.7 0.0
23/01:00am 14.3 11.1 11.8 85 1.3 SSE 20 32 11 17 1021.2 1021.2 0.0
23/12:30am 14.4 10.1 11.9 85 1.3 SSE 26 35 14 19 1021.3 1021.3 0.0
23/12:00am 14.3 9.9 11.6 84 1.4 SSE 26 35 14 19 1021.4 1021.4 0.0
 
Date/Time
CDT
Temp
°C
App
Temp
°C
Dew
Point
Rel
Hum
%
Delta-T
°C
Wind Press
QNH
hPa
Press
MSL
hPa
Rain
since 9 am
mm
Dir
 
Spd
km/h
Gust
km/h
Spd
kts
Gust
kts
22/11:30pm 14.4 10.4 11.9 85 1.3 SSE 24 35 13 19 1021.5 1021.5 0.0
22/11:00pm 14.3 10.4 12.2 87 1.1 SSE 24 35 13 19 1021.6 1021.6 0.0
22/10:30pm 14.3 10.4 12.0 86 1.2 SSE 24 39 13 21 1021.7 1021.7 0.0
22/10:00pm 14.3 10.0 12.0 86 1.2 SSE 26 35 14 19 1021.8 1021.8 0.0
22/09:30pm 14.2 9.4 11.7 85 1.3 SSE 28 39 15 21 1021.7 1021.7 0.0
22/09:00pm 14.4 11.2 11.9 85 1.3 SSE 20 28 11 15 1021.4 1021.4 0.0
22/08:30pm 14.6 10.6 11.9 84 1.5 SSE 24 33 13 18 1021.0 1021.0 0.0
22/08:00pm 14.7 9.9 11.8 83 1.6 SSE 28 35 15 19 1020.6 1020.6 0.0
22/07:30pm 15.0 10.3 12.1 83 1.6 S 28 39 15 21 1020.5 1020.5 0.0
22/07:00pm 15.5 10.8 12.1 80 1.9 S 28 39 15 21 1020.2 1020.2 0.0
22/06:45pm 15.6 9.9 11.8 78 2.1 S 33 43 18 23 1020.0 1020.0 0.0
22/06:30pm 16.0 10.4 12.0 77 2.2 S 33 41 18 22 1019.9 1019.9 0.0
22/06:00pm 17.0 11.4 12.1 73 2.7 S 33 46 18 25 1019.5 1019.5 0.0
22/05:30pm 17.3 11.9 12.2 72 2.8 S 32 41 17 22 1019.5 1019.5 0.0
22/05:00pm 17.4 12.2 12.7 74 2.6 S 32 39 17 21 1019.6 1019.6 0.0
22/04:30pm 18.1 12.8 13.0 72 2.9 S 33 41 18 22 1019.6 1019.6 0.0
22/04:00pm 18.4 13.2 13.3 72 2.9 S 33 41 18 22 1019.4 1019.4 0.0
22/03:30pm 18.3 12.5 12.7 70 3.1 S 35 43 19 23 1019.5 1019.5 0.0
22/03:00pm 20.1 14.5 13.3 65 3.9 S 35 46 19 25 1019.4 1019.4 0.0
22/02:30pm 19.7 15.0 13.2 66 3.7 S 30 37 16 20 1019.4 1019.4 0.0
22/02:00pm 19.7 14.7 13.4 67 3.6 S 32 41 17 22 1019.6 1019.6 0.0
22/01:30pm 19.3 14.2 13.2 68 3.4 S 32 39 17 21 1019.9 1019.9 0.0
22/01:06pm 20.0 15.0 13.5 66 3.7 S 32 43 17 23 1019.8 1019.8 0.0
22/01:00pm 19.5 14.4 13.0 66 3.7 S 32 41 17 22 1019.7 1019.7 0.0
22/12:30pm 18.9 14.0 13.7 72 3.0 S 32 41 17 22 1020.0 1020.0 0.0
22/12:00pm 17.5 12.6 13.6 78 2.2 SSW 32 43 17 23 1020.0 1020.0 0.0
22/11:30am 16.9 11.6 13.2 79 2.1 SSW 33 41 18 22 1019.9 1019.9 0.0
22/11:01am 18.3 12.8 13.6 74 2.7 SSW 35 46 19 25 1019.7 1019.7 0.0
22/11:00am 18.3 12.7 13.4 73 2.8 SSW 35 46 19 25 1019.7 1019.7 0.0
22/10:30am 19.4 14.3 13.8 70 3.2 S 33 44 18 24 1019.5 1019.5 0.0
22/10:00am 18.8 14.5 13.2 70 3.2 SSW 28 37 15 20 1019.0 1019.0 0.0
22/09:30am 18.5 14.3 13.4 72 2.9 S 28 37 15 20 1019.0 1019.0 0.0
22/09:00am 18.2 14.0 13.5 74 2.7 SSW 28 35 15 19 1018.6 1018.6 0.0
22/08:30am 17.4 13.3 13.9 80 2.0 SSW 28 35 15 19 1018.5 1018.5 0.0
22/08:00am 16.3 12.6 13.8 85 1.4 SSW 26 35 14 19 1018.3 1018.3 0.0
22/07:30am 15.2 12.7 13.4 89 1.0 SSW 19 24 10 13 1017.8 1017.8 0.0
22/07:00am 14.8 12.0 13.2 90 0.9 SW 20 28 11 15 1017.8 1017.8 0.0
22/06:30am 15.0 12.2 13.2 89 1.0 SSW 20 28 11 15 1017.5 1017.5 0.0
22/06:00am 14.9 12.0 12.9 88 1.1 SW 20 33 11 18 1017.3 1017.3 0.0
22/05:30am 15.3 12.5 12.6 84 1.5 SW 19 24 10 13 1017.2 1017.2 0.0
22/05:00am 15.9 13.5 12.5 80 1.9 SSW 17 24 9 13 1017.3 1017.3 0.0
22/04:30am 15.8 13.2 12.0 78 2.1 SSW 17 24 9 13 1016.6 1016.6 0.0
22/04:00am 16.6 13.3 11.5 72 2.8 SSW 20 22 11 12 1016.3 1016.3 0.0
22/03:30am 17.5 14.3 11.3 67 3.4 SSW 19 28 10 15 1016.0 1016.0 0.0
22/03:00am 17.9 14.7 10.0 60 4.2 SW 17 22 9 12 1016.1 1016.1 0.0
22/02:30am 19.0 15.5 8.6 51 5.4 SSW 17 24 9 13 1015.7 1015.7 0.0
22/02:00am 15.9 14.9 10.2 69 3.0 N 6 15 3 8 1015.0 1015.0 0.0
22/01:30am 17.1 14.8 10.5 65 3.5 ESE 13 20 7 11 1015.3 1015.3 0.0
22/01:00am 18.6 17.0 10.2 58 4.5 N 9 11 5 6 1016.1 1016.1 0.0
22/12:30am 19.6 17.1 9.8 53 5.2 WSW 13 22 7 12 1016.3 1016.3 0.0
22/12:08am 21.5 14.6 8.7 44 6.8 N 35 43 19 23 1017.3 1017.3 0.0
22/12:04am 26.9 23.8 7.4 29 10.4 WNW 13 26 7 14 1016.8 1016.8 0.0
22/12:00am 19.7 17.6 11.2 58 4.6 NW 13 26 7 14 1018.3 1018.3 0.0
 
Date/Time
CDT
Temp
°C
App
Temp
°C
Dew
Point
Rel
Hum
%
Delta-T
°C
Wind Press
QNH
hPa
Press
MSL
hPa
Rain
since 9 am
mm
Dir
 
Spd
km/h
Gust
km/h
Spd
kts
Gust
kts
21/11:30pm 19.3 16.8 11.1 59 4.5 S 15 20 8 11 1018.0 1018.0 0.0
21/11:00pm 19.9 17.1 11.4 58 4.7 WSW 17 24 9 13 1019.0 1019.0 0.0
21/10:30pm 20.5 15.9 10.9 54 5.2 SSW 26 37 14 20 1018.1 1018.1 0.0
21/10:00pm 22.4 18.0 8.9 42 7.2 SSE 22 30 12 16 1017.1 1017.1 0.0
21/09:30pm 20.8 17.4 11.2 54 5.3 SSW 20 26 11 14 1017.2 1017.2 0.0
21/09:00pm 18.8 18.9 12.8 68 3.4 W 4 13 2 7 1016.5 1016.5 0.0
21/08:30pm 19.5 19.5 12.5 64 3.9 ENE 4 6 2 3 1016.2 1016.2 0.0
21/08:00pm 21.6 21.3 13.2 59 4.8 ENE 7 9 4 5 1016.1 1016.1 0.0
21/07:30pm 22.8 21.5 12.4 52 5.9 E 11 13 6 7 1016.0 1016.0 0.0
21/07:00pm 24.8 23.7 12.1 45 7.3 E 9 9 5 5 1016.2 1016.2 0.0
21/06:30pm 26.8 26.0 11.7 39 8.6 ESE 7 9 4 5 1016.0 1016.0 0.0
21/06:00pm 30.4 28.6 9.3 27 11.8 NE 9 15 5 8 1015.9 1015.9 0.0
21/05:30pm 30.1 27.1 7.9 25 12.1 NNE 13 19 7 10 1016.0 1016.0 0.0
21/05:00pm 31.6 27.7 7.3 22 13.2 NE 17 20 9 11 1016.0 1016.0 0.0
21/04:30pm 32.9 30.1 8.4 22 13.7 NNE 13 19 7 10 1015.9 1015.9 0.0
21/04:00pm 32.8 29.8 7.6 21 13.9 N 13 20 7 11 1016.2 1016.2 0.0
21/03:30pm 32.6 28.8 7.4 21 13.8 NNE 17 22 9 12 1016.6 1016.6 0.0
21/03:00pm 31.9 28.3 8.2 23 13.1 N 17 24 9 13 1016.8 1016.8 0.0
21/02:30pm 31.2 27.0 8.2 24 12.7 NNE 20 28 11 15 1017.2 1017.2 0.0
21/02:00pm 30.5 26.7 9.9 28 11.7 NNE 20 30 11 16 1017.6 1017.6 0.0
21/01:30pm 29.6 25.1 8.6 27 11.6 NNE 22 30 12 16 1018.1 1018.1 0.0
21/01:00pm 29.7 25.2 8.7 27 11.6 N 22 30 12 16 1018.4 1018.4 0.0
21/12:30pm 28.1 24.8 9.4 31 10.3 NNE 17 24 9 13 1018.7 1018.7 0.0
21/12:00pm 26.8 22.8 9.2 33 9.6 NNE 20 28 11 15 1019.2 1019.2 0.0
21/11:30am 25.2 20.9 7.8 33 9.2 NNE 20 26 11 14 1019.6 1019.6 0.0
21/11:00am 25.5 21.1 7.6 32 9.5 NNE 20 28 11 15 1019.9 1019.9 0.0
21/10:30am 25.7 20.4 6.8 30 9.9 NNE 24 35 13 19 1019.9 1019.9 0.0
21/10:00am 26.4 21.4 6.4 28 10.4 NNE 22 33 12 18 1019.9 1019.9 0.0
21/09:30am 23.7 22.0 12.4 49 6.4 NE 13 17 7 9 1019.8 1019.8 0.0
21/09:00am 20.1 20.8 12.3 61 4.4 CALM 0 0 0 0 1019.9 1019.9 0.0
21/08:30am 17.7 18.8 13.6 77 2.3 CALM 0 0 0 0 1019.9 1019.9 0.0
21/08:00am 14.5 15.3 12.5 88 1.1 CALM 0 0 0 0 1019.7 1019.7 0.0
21/07:30am 11.6 11.9 10.8 95 0.4 CALM 0 0 0 0 1019.5 1019.5 0.0
21/07:00am 8.7 8.2 7.9 95 0.4 CALM 0 0 0 0 1019.0 1019.0 0.0
21/06:30am 8.0 7.3 7.1 94 0.4 CALM 0 0 0 0 1018.9 1018.9 0.0
21/06:00am 7.7 7.0 6.8 94 0.4 CALM 0 0 0 0 1018.7 1018.7 0.0
21/05:30am 7.9 7.2 7.1 95 0.4 CALM 0 0 0 0 1018.7 1018.7 0.0
21/05:00am 7.9 7.2 7.1 95 0.4 CALM 0 0 0 0 1018.8 1018.8 0.0
21/04:30am 7.6 6.8 6.7 94 0.4 CALM 0 0 0 0 1018.7 1018.7 0.0
21/04:00am 7.7 7.0 6.8 94 0.4 CALM 0 0 0 0 1018.7 1018.7 0.0
21/03:30am 7.8 7.1 6.9 94 0.4 CALM 0 0 0 0 1018.9 1018.9 0.0
21/03:00am 8.2 7.5 7.0 92 0.6 CALM 0 6 0 3 1019.2 1019.2 0.0

Other Formats:

Comma delimited format used in spreadsheet applications
http://www.bom.gov.au/fwo/IDS60801/IDS60801.95807.axf

JavaScript Object Notation format (JSON) in row-major order
http://www.bom.gov.au/fwo/IDS60801/IDS60801.95807.json